sensor_id;sensor_type;location;lat;lon;timestamp;P1;durP1;ratioP1;P2;durP2;ratioP2
84984;SDS011;75299;50.018;20.014;2024-03-25T00:06:06;6.90;;;3.60;;
84984;SDS011;75299;50.018;20.014;2024-03-25T00:09:23;6.13;;;3.05;;
84984;SDS011;75299;50.018;20.014;2024-03-25T00:15:57;5.85;;;2.80;;
84984;SDS011;75299;50.018;20.014;2024-03-25T00:22:29;6.15;;;3.20;;
84984;SDS011;75299;50.018;20.014;2024-03-25T00:25:46;6.45;;;3.55;;
84984;SDS011;75299;50.018;20.014;2024-03-25T00:32:20;8.48;;;3.70;;
84984;SDS011;75299;50.018;20.014;2024-03-25T00:35:39;6.68;;;3.03;;
84984;SDS011;75299;50.018;20.014;2024-03-25T00:38:57;7.60;;;3.53;;
84984;SDS011;75299;50.018;20.014;2024-03-25T00:42:15;7.48;;;3.53;;
84984;SDS011;75299;50.018;20.014;2024-03-25T00:45:32;8.98;;;3.78;;
84984;SDS011;75299;50.018;20.014;2024-03-25T00:48:51;5.78;;;3.63;;
84984;SDS011;75299;50.018;20.014;2024-03-25T00:52:08;8.95;;;4.28;;
84984;SDS011;75299;50.018;20.014;2024-03-25T00:55:25;7.20;;;3.90;;
84984;SDS011;75299;50.018;20.014;2024-03-25T00:58:43;7.15;;;3.63;;
84984;SDS011;75299;50.018;20.014;2024-03-25T01:02:00;7.75;;;4.00;;
84984;SDS011;75299;50.018;20.014;2024-03-25T01:05:18;7.58;;;3.78;;
84984;SDS011;75299;50.018;20.014;2024-03-25T01:08:36;5.75;;;3.25;;
84984;SDS011;75299;50.018;20.014;2024-03-25T01:11:53;7.35;;;3.60;;
84984;SDS011;75299;50.018;20.014;2024-03-25T01:18:24;6.33;;;3.68;;
84984;SDS011;75299;50.018;20.014;2024-03-25T01:21:42;6.48;;;3.43;;
84984;SDS011;75299;50.018;20.014;2024-03-25T01:24:59;5.53;;;3.38;;
84984;SDS011;75299;50.018;20.014;2024-03-25T01:28:17;6.68;;;3.48;;
84984;SDS011;75299;50.018;20.014;2024-03-25T01:31:34;6.83;;;3.75;;
84984;SDS011;75299;50.018;20.014;2024-03-25T01:34:51;7.48;;;3.88;;
84984;SDS011;75299;50.018;20.014;2024-03-25T01:38:09;7.18;;;3.75;;
84984;SDS011;75299;50.018;20.014;2024-03-25T01:44:40;5.55;;;3.30;;
84984;SDS011;75299;50.018;20.014;2024-03-25T01:51:14;4.58;;;3.03;;
84984;SDS011;75299;50.018;20.014;2024-03-25T01:54:33;5.68;;;3.08;;
84984;SDS011;75299;50.018;20.014;2024-03-25T01:57:50;6.48;;;3.10;;
84984;SDS011;75299;50.018;20.014;2024-03-25T02:04:22;5.93;;;3.15;;
84984;SDS011;75299;50.018;20.014;2024-03-25T02:07:40;6.83;;;3.35;;
84984;SDS011;75299;50.018;20.014;2024-03-25T02:10:58;6.10;;;3.08;;
84984;SDS011;75299;50.018;20.014;2024-03-25T02:14:16;4.63;;;3.00;;
84984;SDS011;75299;50.018;20.014;2024-03-25T02:17:34;4.85;;;2.90;;
84984;SDS011;75299;50.018;20.014;2024-03-25T02:20:51;3.90;;;2.70;;
84984;SDS011;75299;50.018;20.014;2024-03-25T02:24:09;5.50;;;3.15;;
84984;SDS011;75299;50.018;20.014;2024-03-25T02:27:27;4.60;;;2.65;;
84984;SDS011;75299;50.018;20.014;2024-03-25T02:30:45;5.70;;;2.93;;
84984;SDS011;75299;50.018;20.014;2024-03-25T02:37:16;3.45;;;2.50;;
84984;SDS011;75299;50.018;20.014;2024-03-25T02:40:33;4.80;;;2.48;;
84984;SDS011;75299;50.018;20.014;2024-03-25T02:43:51;4.58;;;2.60;;
84984;SDS011;75299;50.018;20.014;2024-03-25T02:47:09;4.58;;;2.88;;
84984;SDS011;75299;50.018;20.014;2024-03-25T02:50:28;4.05;;;2.60;;
84984;SDS011;75299;50.018;20.014;2024-03-25T02:56:59;4.75;;;2.68;;
84984;SDS011;75299;50.018;20.014;2024-03-25T03:00:17;4.35;;;2.83;;
84984;SDS011;75299;50.018;20.014;2024-03-25T03:03:35;5.18;;;2.90;;
84984;SDS011;75299;50.018;20.014;2024-03-25T03:10:07;4.75;;;2.70;;
84984;SDS011;75299;50.018;20.014;2024-03-25T03:13:24;4.55;;;2.60;;
84984;SDS011;75299;50.018;20.014;2024-03-25T03:16:42;5.65;;;3.03;;
84984;SDS011;75299;50.018;20.014;2024-03-25T03:20:00;6.53;;;3.50;;
84984;SDS011;75299;50.018;20.014;2024-03-25T03:23:19;4.35;;;2.63;;
84984;SDS011;75299;50.018;20.014;2024-03-25T03:26:36;4.55;;;2.95;;
84984;SDS011;75299;50.018;20.014;2024-03-25T03:29:54;4.55;;;2.78;;
84984;SDS011;75299;50.018;20.014;2024-03-25T03:36:26;6.43;;;3.38;;
84984;SDS011;75299;50.018;20.014;2024-03-25T03:39:43;5.75;;;4.23;;
84984;SDS011;75299;50.018;20.014;2024-03-25T03:43:00;5.13;;;3.13;;
84984;SDS011;75299;50.018;20.014;2024-03-25T03:46:17;3.83;;;2.80;;
84984;SDS011;75299;50.018;20.014;2024-03-25T03:52:49;4.20;;;2.63;;
84984;SDS011;75299;50.018;20.014;2024-03-25T03:56:08;6.03;;;2.75;;
84984;SDS011;75299;50.018;20.014;2024-03-25T03:59:25;6.05;;;2.63;;
84984;SDS011;75299;50.018;20.014;2024-03-25T04:02:43;4.38;;;2.48;;
84984;SDS011;75299;50.018;20.014;2024-03-25T04:06:00;3.98;;;2.28;;
84984;SDS011;75299;50.018;20.014;2024-03-25T04:09:24;8.15;;;5.00;;
84984;SDS011;75299;50.018;20.014;2024-03-25T04:12:41;5.40;;;3.08;;
84984;SDS011;75299;50.018;20.014;2024-03-25T04:16:01;7.65;;;3.55;;
84984;SDS011;75299;50.018;20.014;2024-03-25T04:19:21;5.48;;;2.70;;
84984;SDS011;75299;50.018;20.014;2024-03-25T04:22:42;4.43;;;2.90;;
84984;SDS011;75299;50.018;20.014;2024-03-25T04:26:02;3.70;;;2.48;;
84984;SDS011;75299;50.018;20.014;2024-03-25T04:29:19;3.70;;;2.25;;
84984;SDS011;75299;50.018;20.014;2024-03-25T04:32:37;4.83;;;2.88;;
84984;SDS011;75299;50.018;20.014;2024-03-25T04:35:55;2.88;;;1.90;;
84984;SDS011;75299;50.018;20.014;2024-03-25T04:39:13;3.55;;;2.50;;
84984;SDS011;75299;50.018;20.014;2024-03-25T04:42:31;4.60;;;3.00;;
84984;SDS011;75299;50.018;20.014;2024-03-25T04:45:48;3.58;;;2.58;;
84984;SDS011;75299;50.018;20.014;2024-03-25T04:49:08;5.73;;;2.40;;
84984;SDS011;75299;50.018;20.014;2024-03-25T04:55:40;3.43;;;2.35;;
84984;SDS011;75299;50.018;20.014;2024-03-25T04:58:57;4.63;;;2.40;;
84984;SDS011;75299;50.018;20.014;2024-03-25T05:02:14;4.78;;;2.55;;
84984;SDS011;75299;50.018;20.014;2024-03-25T05:08:46;3.03;;;2.30;;
84984;SDS011;75299;50.018;20.014;2024-03-25T05:15:19;3.20;;;2.50;;
84984;SDS011;75299;50.018;20.014;2024-03-25T05:18:36;3.70;;;2.50;;
84984;SDS011;75299;50.018;20.014;2024-03-25T05:25:08;4.85;;;2.10;;
84984;SDS011;75299;50.018;20.014;2024-03-25T05:28:25;4.33;;;2.50;;
84984;SDS011;75299;50.018;20.014;2024-03-25T05:31:55;3.93;;;1.80;;
84984;SDS011;75299;50.018;20.014;2024-03-25T05:35:10;4.33;;;2.15;;
84984;SDS011;75299;50.018;20.014;2024-03-25T05:41:42;4.23;;;2.38;;
84984;SDS011;75299;50.018;20.014;2024-03-25T05:44:59;2.90;;;1.73;;
84984;SDS011;75299;50.018;20.014;2024-03-25T05:48:18;4.98;;;2.20;;
84984;SDS011;75299;50.018;20.014;2024-03-25T05:51:35;3.33;;;2.00;;
84984;SDS011;75299;50.018;20.014;2024-03-25T05:54:53;3.25;;;2.23;;
84984;SDS011;75299;50.018;20.014;2024-03-25T05:58:10;3.05;;;1.90;;
84984;SDS011;75299;50.018;20.014;2024-03-25T06:01:27;3.90;;;1.60;;
84984;SDS011;75299;50.018;20.014;2024-03-25T06:04:45;3.18;;;1.85;;
84984;SDS011;75299;50.018;20.014;2024-03-25T06:08:05;2.00;;;1.50;;
84984;SDS011;75299;50.018;20.014;2024-03-25T06:11:24;3.03;;;1.50;;
84984;SDS011;75299;50.018;20.014;2024-03-25T06:14:42;8.20;;;4.70;;
84984;SDS011;75299;50.018;20.014;2024-03-25T06:21:14;3.30;;;1.65;;
84984;SDS011;75299;50.018;20.014;2024-03-25T06:24:31;2.38;;;1.55;;
84984;SDS011;75299;50.018;20.014;2024-03-25T06:27:49;2.43;;;1.58;;
84984;SDS011;75299;50.018;20.014;2024-03-25T06:31:06;2.00;;;1.60;;
84984;SDS011;75299;50.018;20.014;2024-03-25T06:34:33;2.53;;;1.73;;
84984;SDS011;75299;50.018;20.014;2024-03-25T06:37:51;2.73;;;1.70;;
84984;SDS011;75299;50.018;20.014;2024-03-25T06:41:09;4.08;;;2.48;;
84984;SDS011;75299;50.018;20.014;2024-03-25T06:44:26;2.65;;;1.73;;
84984;SDS011;75299;50.018;20.014;2024-03-25T06:47:44;3.40;;;1.73;;
84984;SDS011;75299;50.018;20.014;2024-03-25T06:51:01;5.78;;;4.03;;
84984;SDS011;75299;50.018;20.014;2024-03-25T06:54:18;3.85;;;2.18;;
84984;SDS011;75299;50.018;20.014;2024-03-25T06:57:35;4.23;;;2.95;;
84984;SDS011;75299;50.018;20.014;2024-03-25T07:04:07;4.10;;;1.85;;
84984;SDS011;75299;50.018;20.014;2024-03-25T07:10:41;1.93;;;1.50;;
84984;SDS011;75299;50.018;20.014;2024-03-25T07:13:59;3.50;;;1.70;;
84984;SDS011;75299;50.018;20.014;2024-03-25T07:17:17;2.78;;;1.58;;
84984;SDS011;75299;50.018;20.014;2024-03-25T07:20:35;3.95;;;1.70;;
84984;SDS011;75299;50.018;20.014;2024-03-25T07:23:52;2.50;;;1.40;;
84984;SDS011;75299;50.018;20.014;2024-03-25T07:27:09;3.18;;;1.53;;
84984;SDS011;75299;50.018;20.014;2024-03-25T07:30:27;4.23;;;1.48;;
84984;SDS011;75299;50.018;20.014;2024-03-25T07:33:44;4.50;;;1.65;;
84984;SDS011;75299;50.018;20.014;2024-03-25T07:37:02;2.35;;;1.50;;
84984;SDS011;75299;50.018;20.014;2024-03-25T07:40:19;2.83;;;1.50;;
84984;SDS011;75299;50.018;20.014;2024-03-25T07:43:37;1.93;;;1.40;;
84984;SDS011;75299;50.018;20.014;2024-03-25T07:46:55;2.35;;;1.75;;
84984;SDS011;75299;50.018;20.014;2024-03-25T07:50:12;2.18;;;1.50;;
84984;SDS011;75299;50.018;20.014;2024-03-25T07:53:29;2.85;;;1.88;;
84984;SDS011;75299;50.018;20.014;2024-03-25T07:56:46;2.98;;;2.00;;
84984;SDS011;75299;50.018;20.014;2024-03-25T08:03:20;2.57;;;1.97;;
84984;SDS011;75299;50.018;20.014;2024-03-25T08:09:52;2.78;;;1.60;;
84984;SDS011;75299;50.018;20.014;2024-03-25T08:16:24;2.83;;;1.90;;
84984;SDS011;75299;50.018;20.014;2024-03-25T08:19:40;3.83;;;2.03;;
84984;SDS011;75299;50.018;20.014;2024-03-25T08:22:57;7.03;;;2.35;;
84984;SDS011;75299;50.018;20.014;2024-03-25T08:26:15;4.48;;;2.48;;
84984;SDS011;75299;50.018;20.014;2024-03-25T08:29:32;4.28;;;2.60;;
84984;SDS011;75299;50.018;20.014;2024-03-25T08:32:51;6.55;;;2.85;;
84984;SDS011;75299;50.018;20.014;2024-03-25T08:36:09;4.25;;;2.63;;
84984;SDS011;75299;50.018;20.014;2024-03-25T08:39:26;3.13;;;2.10;;
84984;SDS011;75299;50.018;20.014;2024-03-25T08:42:43;2.30;;;2.10;;
84984;SDS011;75299;50.018;20.014;2024-03-25T08:49:15;4.15;;;2.18;;
84984;SDS011;75299;50.018;20.014;2024-03-25T08:52:34;4.05;;;2.23;;
84984;SDS011;75299;50.018;20.014;2024-03-25T08:55:51;3.58;;;2.13;;
84984;SDS011;75299;50.018;20.014;2024-03-25T08:59:08;3.68;;;2.40;;
84984;SDS011;75299;50.018;20.014;2024-03-25T09:02:25;4.25;;;2.25;;
84984;SDS011;75299;50.018;20.014;2024-03-25T09:05:42;5.13;;;2.60;;
84984;SDS011;75299;50.018;20.014;2024-03-25T09:09:01;4.75;;;2.10;;
84984;SDS011;75299;50.018;20.014;2024-03-25T09:12:28;7.75;;;2.25;;
84984;SDS011;75299;50.018;20.014;2024-03-25T09:15:45;2.55;;;2.10;;
84984;SDS011;75299;50.018;20.014;2024-03-25T09:22:16;3.40;;;2.10;;
84984;SDS011;75299;50.018;20.014;2024-03-25T09:25:36;3.33;;;2.28;;
84984;SDS011;75299;50.018;20.014;2024-03-25T09:28:53;7.08;;;4.25;;
84984;SDS011;75299;50.018;20.014;2024-03-25T09:32:11;3.33;;;2.40;;
84984;SDS011;75299;50.018;20.014;2024-03-25T09:35:28;8.10;;;3.78;;
84984;SDS011;75299;50.018;20.014;2024-03-25T09:42:01;4.98;;;2.15;;
84984;SDS011;75299;50.018;20.014;2024-03-25T09:45:21;3.53;;;2.13;;
84984;SDS011;75299;50.018;20.014;2024-03-25T09:48:40;4.43;;;2.93;;
84984;SDS011;75299;50.018;20.014;2024-03-25T09:51:58;4.53;;;2.40;;
84984;SDS011;75299;50.018;20.014;2024-03-25T09:55:16;4.68;;;2.40;;
84984;SDS011;75299;50.018;20.014;2024-03-25T10:01:48;4.73;;;2.78;;
84984;SDS011;75299;50.018;20.014;2024-03-25T10:05:06;5.08;;;3.10;;
84984;SDS011;75299;50.018;20.014;2024-03-25T10:08:24;3.90;;;2.43;;
84984;SDS011;75299;50.018;20.014;2024-03-25T10:11:41;4.58;;;2.70;;
84984;SDS011;75299;50.018;20.014;2024-03-25T10:15:01;3.75;;;2.40;;
84984;SDS011;75299;50.018;20.014;2024-03-25T10:18:19;3.55;;;2.40;;
84984;SDS011;75299;50.018;20.014;2024-03-25T10:21:37;3.30;;;2.50;;
84984;SDS011;75299;50.018;20.014;2024-03-25T10:24:54;3.90;;;2.73;;
84984;SDS011;75299;50.018;20.014;2024-03-25T10:28:12;3.85;;;2.88;;
84984;SDS011;75299;50.018;20.014;2024-03-25T10:31:30;2.80;;;2.45;;
84984;SDS011;75299;50.018;20.014;2024-03-25T10:34:47;5.03;;;2.60;;
84984;SDS011;75299;50.018;20.014;2024-03-25T10:38:05;3.53;;;2.35;;
84984;SDS011;75299;50.018;20.014;2024-03-25T10:41:25;3.43;;;2.55;;
84984;SDS011;75299;50.018;20.014;2024-03-25T10:44:42;4.60;;;2.58;;
84984;SDS011;75299;50.018;20.014;2024-03-25T10:48:02;4.65;;;2.40;;
84984;SDS011;75299;50.018;20.014;2024-03-25T10:51:22;3.25;;;2.00;;
84984;SDS011;75299;50.018;20.014;2024-03-25T10:54:40;4.15;;;2.23;;
84984;SDS011;75299;50.018;20.014;2024-03-25T10:57:57;2.85;;;2.10;;
84984;SDS011;75299;50.018;20.014;2024-03-25T11:01:16;3.15;;;1.80;;
84984;SDS011;75299;50.018;20.014;2024-03-25T11:04:34;3.53;;;2.10;;
84984;SDS011;75299;50.018;20.014;2024-03-25T11:07:51;4.55;;;2.20;;
84984;SDS011;75299;50.018;20.014;2024-03-25T11:14:26;3.15;;;2.05;;
84984;SDS011;75299;50.018;20.014;2024-03-25T11:17:49;3.48;;;2.43;;
84984;SDS011;75299;50.018;20.014;2024-03-25T11:21:07;3.25;;;2.28;;
84984;SDS011;75299;50.018;20.014;2024-03-25T11:27:45;2.88;;;2.33;;
84984;SDS011;75299;50.018;20.014;2024-03-25T11:31:03;4.68;;;3.28;;
84984;SDS011;75299;50.018;20.014;2024-03-25T11:34:20;5.35;;;2.75;;
84984;SDS011;75299;50.018;20.014;2024-03-25T11:37:40;1.63;;;1.28;;
84984;SDS011;75299;50.018;20.014;2024-03-25T11:40:58;1.00;;;0.90;;
84984;SDS011;75299;50.018;20.014;2024-03-25T11:44:15;1.30;;;0.93;;
84984;SDS011;75299;50.018;20.014;2024-03-25T11:47:33;1.35;;;0.80;;
84984;SDS011;75299;50.018;20.014;2024-03-25T11:54:05;1.13;;;0.80;;
84984;SDS011;75299;50.018;20.014;2024-03-25T11:57:25;2.28;;;1.35;;
84984;SDS011;75299;50.018;20.014;2024-03-25T12:00:46;2.40;;;1.25;;
84984;SDS011;75299;50.018;20.014;2024-03-25T12:04:10;5.45;;;1.40;;
84984;SDS011;75299;50.018;20.014;2024-03-25T12:07:32;2.33;;;1.30;;
84984;SDS011;75299;50.018;20.014;2024-03-25T12:10:49;4.95;;;2.33;;
84984;SDS011;75299;50.018;20.014;2024-03-25T12:17:31;4.23;;;2.03;;
84984;SDS011;75299;50.018;20.014;2024-03-25T12:20:48;5.30;;;2.20;;
84984;SDS011;75299;50.018;20.014;2024-03-25T12:27:21;4.73;;;2.25;;
84984;SDS011;75299;50.018;20.014;2024-03-25T12:30:40;3.33;;;2.35;;
84984;SDS011;75299;50.018;20.014;2024-03-25T12:34:12;4.13;;;2.65;;
84984;SDS011;75299;50.018;20.014;2024-03-25T12:37:30;3.38;;;2.50;;
84984;SDS011;75299;50.018;20.014;2024-03-25T12:40:47;3.98;;;2.68;;
84984;SDS011;75299;50.018;20.014;2024-03-25T12:44:04;4.05;;;2.75;;
84984;SDS011;75299;50.018;20.014;2024-03-25T12:47:22;4.85;;;2.85;;
84984;SDS011;75299;50.018;20.014;2024-03-25T12:50:39;4.63;;;2.45;;
84984;SDS011;75299;50.018;20.014;2024-03-25T12:57:11;2.40;;;1.70;;
84984;SDS011;75299;50.018;20.014;2024-03-25T13:00:28;2.10;;;1.88;;
84984;SDS011;75299;50.018;20.014;2024-03-25T13:03:47;3.30;;;2.00;;
84984;SDS011;75299;50.018;20.014;2024-03-25T13:10:20;5.30;;;2.30;;
84984;SDS011;75299;50.018;20.014;2024-03-25T13:13:37;3.78;;;2.63;;
84984;SDS011;75299;50.018;20.014;2024-03-25T13:16:55;2.58;;;1.75;;
84984;SDS011;75299;50.018;20.014;2024-03-25T13:20:12;1.90;;;1.20;;
84984;SDS011;75299;50.018;20.014;2024-03-25T13:23:30;2.50;;;1.40;;
84984;SDS011;75299;50.018;20.014;2024-03-25T13:26:47;1.98;;;1.40;;
84984;SDS011;75299;50.018;20.014;2024-03-25T13:33:20;1.73;;;1.20;;
84984;SDS011;75299;50.018;20.014;2024-03-25T13:39:52;2.28;;;1.50;;
84984;SDS011;75299;50.018;20.014;2024-03-25T13:43:09;1.75;;;1.23;;
84984;SDS011;75299;50.018;20.014;2024-03-25T13:49:40;4.40;;;1.60;;
84984;SDS011;75299;50.018;20.014;2024-03-25T13:52:57;2.73;;;1.40;;
84984;SDS011;75299;50.018;20.014;2024-03-25T13:56:15;2.20;;;1.50;;
84984;SDS011;75299;50.018;20.014;2024-03-25T14:02:46;3.50;;;1.83;;
84984;SDS011;75299;50.018;20.014;2024-03-25T14:06:04;2.08;;;1.40;;
84984;SDS011;75299;50.018;20.014;2024-03-25T14:09:25;3.68;;;1.43;;
84984;SDS011;75299;50.018;20.014;2024-03-25T14:12:42;2.45;;;1.63;;
84984;SDS011;75299;50.018;20.014;2024-03-25T14:19:14;1.58;;;1.33;;
84984;SDS011;75299;50.018;20.014;2024-03-25T14:22:32;2.38;;;1.78;;
84984;SDS011;75299;50.018;20.014;2024-03-25T14:25:52;6.23;;;1.80;;
84984;SDS011;75299;50.018;20.014;2024-03-25T14:29:09;2.55;;;1.93;;
84984;SDS011;75299;50.018;20.014;2024-03-25T14:32:26;2.93;;;2.00;;
84984;SDS011;75299;50.018;20.014;2024-03-25T14:35:44;4.15;;;1.98;;
84984;SDS011;75299;50.018;20.014;2024-03-25T14:39:01;4.45;;;2.55;;
84984;SDS011;75299;50.018;20.014;2024-03-25T14:42:18;3.38;;;2.55;;
84984;SDS011;75299;50.018;20.014;2024-03-25T14:45:36;3.50;;;2.28;;
84984;SDS011;75299;50.018;20.014;2024-03-25T14:48:54;3.55;;;2.38;;
84984;SDS011;75299;50.018;20.014;2024-03-25T14:52:11;3.98;;;2.60;;
84984;SDS011;75299;50.018;20.014;2024-03-25T14:55:28;2.78;;;2.18;;
84984;SDS011;75299;50.018;20.014;2024-03-25T14:58:45;3.90;;;2.33;;
84984;SDS011;75299;50.018;20.014;2024-03-25T15:02:03;4.25;;;2.40;;
84984;SDS011;75299;50.018;20.014;2024-03-25T15:05:21;3.50;;;2.15;;
84984;SDS011;75299;50.018;20.014;2024-03-25T15:08:38;3.55;;;2.28;;
84984;SDS011;75299;50.018;20.014;2024-03-25T15:11:55;3.05;;;2.18;;
84984;SDS011;75299;50.018;20.014;2024-03-25T15:15:12;3.93;;;2.68;;
84984;SDS011;75299;50.018;20.014;2024-03-25T15:18:30;4.25;;;2.98;;
84984;SDS011;75299;50.018;20.014;2024-03-25T15:21:47;3.50;;;2.60;;
84984;SDS011;75299;50.018;20.014;2024-03-25T15:25:06;10.80;;;5.58;;
84984;SDS011;75299;50.018;20.014;2024-03-25T15:28:24;6.30;;;3.83;;
84984;SDS011;75299;50.018;20.014;2024-03-25T15:31:42;4.88;;;3.18;;
84984;SDS011;75299;50.018;20.014;2024-03-25T15:34:59;5.50;;;3.23;;
84984;SDS011;75299;50.018;20.014;2024-03-25T15:38:17;6.20;;;3.20;;
84984;SDS011;75299;50.018;20.014;2024-03-25T15:44:50;4.60;;;3.10;;
84984;SDS011;75299;50.018;20.014;2024-03-25T15:48:08;5.80;;;3.50;;
84984;SDS011;75299;50.018;20.014;2024-03-25T15:51:26;4.65;;;2.83;;
84984;SDS011;75299;50.018;20.014;2024-03-25T15:54:43;4.80;;;3.10;;
84984;SDS011;75299;50.018;20.014;2024-03-25T15:58:02;5.10;;;3.13;;
84984;SDS011;75299;50.018;20.014;2024-03-25T16:01:19;5.13;;;3.00;;
84984;SDS011;75299;50.018;20.014;2024-03-25T16:04:37;4.25;;;3.10;;
84984;SDS011;75299;50.018;20.014;2024-03-25T16:07:54;7.20;;;3.33;;
84984;SDS011;75299;50.018;20.014;2024-03-25T16:11:17;5.43;;;3.65;;
84984;SDS011;75299;50.018;20.014;2024-03-25T16:14:35;6.45;;;4.08;;
84984;SDS011;75299;50.018;20.014;2024-03-25T16:17:52;5.23;;;3.28;;
84984;SDS011;75299;50.018;20.014;2024-03-25T16:21:15;4.20;;;2.48;;
84984;SDS011;75299;50.018;20.014;2024-03-25T16:24:32;4.43;;;2.80;;
84984;SDS011;75299;50.018;20.014;2024-03-25T16:27:54;4.53;;;3.23;;
84984;SDS011;75299;50.018;20.014;2024-03-25T16:31:15;4.15;;;3.18;;
84984;SDS011;75299;50.018;20.014;2024-03-25T16:34:32;7.08;;;3.85;;
84984;SDS011;75299;50.018;20.014;2024-03-25T16:37:50;5.15;;;4.03;;
84984;SDS011;75299;50.018;20.014;2024-03-25T16:41:08;6.28;;;4.03;;
84984;SDS011;75299;50.018;20.014;2024-03-25T16:44:25;9.98;;;4.50;;
84984;SDS011;75299;50.018;20.014;2024-03-25T16:47:46;12.28;;;6.15;;
84984;SDS011;75299;50.018;20.014;2024-03-25T16:51:04;11.05;;;5.15;;
84984;SDS011;75299;50.018;20.014;2024-03-25T16:54:21;5.78;;;4.43;;
84984;SDS011;75299;50.018;20.014;2024-03-25T16:57:40;8.00;;;4.63;;
84984;SDS011;75299;50.018;20.014;2024-03-25T17:00:57;10.35;;;4.90;;
84984;SDS011;75299;50.018;20.014;2024-03-25T17:04:15;9.60;;;4.93;;
84984;SDS011;75299;50.018;20.014;2024-03-25T17:07:34;7.10;;;5.03;;
84984;SDS011;75299;50.018;20.014;2024-03-25T17:10:52;8.70;;;5.10;;
84984;SDS011;75299;50.018;20.014;2024-03-25T17:14:10;6.10;;;4.68;;
84984;SDS011;75299;50.018;20.014;2024-03-25T17:17:27;7.35;;;4.10;;
84984;SDS011;75299;50.018;20.014;2024-03-25T17:42:27;7.03;;;4.60;;
84984;SDS011;75299;50.018;20.014;2024-03-25T17:50:52;7.35;;;5.10;;
84984;SDS011;75299;50.018;20.014;2024-03-25T18:13:33;10.23;;;7.18;;
84984;SDS011;75299;50.018;20.014;2024-03-25T18:16:58;12.30;;;7.75;;
84984;SDS011;75299;50.018;20.014;2024-03-25T18:31:57;13.03;;;7.55;;
84984;SDS011;75299;50.018;20.014;2024-03-25T19:08:53;18.28;;;12.28;;
84984;SDS011;75299;50.018;20.014;2024-03-25T19:21:27;20.60;;;12.20;;
84984;SDS011;75299;50.018;20.014;2024-03-25T19:24:44;20.30;;;13.40;;
84984;SDS011;75299;50.018;20.014;2024-03-25T19:28:02;22.98;;;12.85;;
84984;SDS011;75299;50.018;20.014;2024-03-25T19:31:22;21.03;;;13.40;;
84984;SDS011;75299;50.018;20.014;2024-03-25T19:34:53;21.38;;;12.78;;
84984;SDS011;75299;50.018;20.014;2024-03-25T19:38:24;21.13;;;13.18;;
84984;SDS011;75299;50.018;20.014;2024-03-25T19:41:42;20.88;;;12.40;;
84984;SDS011;75299;50.018;20.014;2024-03-25T19:44:59;24.00;;;12.28;;
84984;SDS011;75299;50.018;20.014;2024-03-25T19:48:17;22.53;;;12.55;;
84984;SDS011;75299;50.018;20.014;2024-03-25T19:51:35;23.28;;;13.33;;
84984;SDS011;75299;50.018;20.014;2024-03-25T19:59:49;24.55;;;14.73;;
84984;SDS011;75299;50.018;20.014;2024-03-25T20:07:04;22.40;;;14.10;;
84984;SDS011;75299;50.018;20.014;2024-03-25T20:10:26;23.85;;;14.10;;
84984;SDS011;75299;50.018;20.014;2024-03-25T20:13:51;23.30;;;14.33;;
84984;SDS011;75299;50.018;20.014;2024-03-25T20:17:09;24.88;;;14.53;;
84984;SDS011;75299;50.018;20.014;2024-03-25T20:20:26;21.35;;;13.45;;
84984;SDS011;75299;50.018;20.014;2024-03-25T20:23:44;20.78;;;13.70;;
84984;SDS011;75299;50.018;20.014;2024-03-25T20:27:03;20.05;;;13.38;;
84984;SDS011;75299;50.018;20.014;2024-03-25T20:30:22;24.55;;;14.58;;
84984;SDS011;75299;50.018;20.014;2024-03-25T20:33:40;20.33;;;13.38;;
84984;SDS011;75299;50.018;20.014;2024-03-25T20:36:59;22.13;;;13.95;;
84984;SDS011;75299;50.018;20.014;2024-03-25T20:40:18;20.65;;;12.43;;
84984;SDS011;75299;50.018;20.014;2024-03-25T20:43:46;24.90;;;14.03;;
84984;SDS011;75299;50.018;20.014;2024-03-25T20:47:10;19.88;;;12.70;;
84984;SDS011;75299;50.018;20.014;2024-03-25T20:50:31;21.25;;;12.33;;
84984;SDS011;75299;50.018;20.014;2024-03-25T20:53:51;22.58;;;13.45;;
84984;SDS011;75299;50.018;20.014;2024-03-25T20:57:13;21.10;;;12.73;;
84984;SDS011;75299;50.018;20.014;2024-03-25T21:00:32;21.15;;;13.05;;
84984;SDS011;75299;50.018;20.014;2024-03-25T21:03:50;18.90;;;12.68;;
84984;SDS011;75299;50.018;20.014;2024-03-25T21:07:13;21.60;;;13.00;;
84984;SDS011;75299;50.018;20.014;2024-03-25T21:10:52;21.70;;;13.25;;
84984;SDS011;75299;50.018;20.014;2024-03-25T21:14:13;24.63;;;14.40;;
84984;SDS011;75299;50.018;20.014;2024-03-25T21:17:36;25.50;;;14.45;;
84984;SDS011;75299;50.018;20.014;2024-03-25T21:20:54;22.13;;;13.95;;
84984;SDS011;75299;50.018;20.014;2024-03-25T21:24:16;21.40;;;13.90;;
84984;SDS011;75299;50.018;20.014;2024-03-25T21:27:47;24.18;;;15.00;;
84984;SDS011;75299;50.018;20.014;2024-03-25T21:31:15;22.73;;;14.43;;
84984;SDS011;75299;50.018;20.014;2024-03-25T21:34:34;21.43;;;14.00;;
84984;SDS011;75299;50.018;20.014;2024-03-25T21:37:57;22.98;;;14.58;;
84984;SDS011;75299;50.018;20.014;2024-03-25T21:41:24;21.77;;;13.50;;
84984;SDS011;75299;50.018;20.014;2024-03-25T21:44:45;24.83;;;14.23;;
84984;SDS011;75299;50.018;20.014;2024-03-25T21:48:21;23.58;;;13.40;;
84984;SDS011;75299;50.018;20.014;2024-03-25T21:51:45;21.88;;;13.08;;
84984;SDS011;75299;50.018;20.014;2024-03-25T21:55:03;23.53;;;13.75;;
84984;SDS011;75299;50.018;20.014;2024-03-25T21:58:21;19.00;;;12.83;;
84984;SDS011;75299;50.018;20.014;2024-03-25T22:01:43;25.10;;;14.08;;
84984;SDS011;75299;50.018;20.014;2024-03-25T22:05:00;20.10;;;12.58;;
84984;SDS011;75299;50.018;20.014;2024-03-25T22:08:21;22.43;;;13.85;;
84984;SDS011;75299;50.018;20.014;2024-03-25T22:11:43;21.53;;;12.85;;
84984;SDS011;75299;50.018;20.014;2024-03-25T22:15:04;20.68;;;12.80;;
84984;SDS011;75299;50.018;20.014;2024-03-25T22:18:29;23.20;;;13.53;;
84984;SDS011;75299;50.018;20.014;2024-03-25T22:21:46;20.90;;;12.33;;
84984;SDS011;75299;50.018;20.014;2024-03-25T22:25:04;20.60;;;12.95;;
84984;SDS011;75299;50.018;20.014;2024-03-25T22:28:22;21.05;;;13.33;;
84984;SDS011;75299;50.018;20.014;2024-03-25T22:31:40;22.35;;;13.13;;
84984;SDS011;75299;50.018;20.014;2024-03-25T22:35:06;19.80;;;12.48;;
84984;SDS011;75299;50.018;20.014;2024-03-25T22:38:24;18.93;;;12.43;;
84984;SDS011;75299;50.018;20.014;2024-03-25T22:41:42;21.65;;;13.33;;
84984;SDS011;75299;50.018;20.014;2024-03-25T22:45:00;23.00;;;13.43;;
84984;SDS011;75299;50.018;20.014;2024-03-25T22:48:20;20.90;;;12.48;;
84984;SDS011;75299;50.018;20.014;2024-03-25T22:51:37;20.83;;;12.75;;
84984;SDS011;75299;50.018;20.014;2024-03-25T22:54:55;21.98;;;12.85;;
84984;SDS011;75299;50.018;20.014;2024-03-25T22:58:12;18.70;;;11.68;;
84984;SDS011;75299;50.018;20.014;2024-03-25T23:01:29;18.85;;;11.78;;
84984;SDS011;75299;50.018;20.014;2024-03-25T23:04:47;19.45;;;12.38;;
84984;SDS011;75299;50.018;20.014;2024-03-25T23:08:04;22.60;;;13.10;;
84984;SDS011;75299;50.018;20.014;2024-03-25T23:11:22;20.70;;;12.35;;
84984;SDS011;75299;50.018;20.014;2024-03-25T23:14:39;19.38;;;11.98;;
84984;SDS011;75299;50.018;20.014;2024-03-25T23:17:59;20.38;;;12.33;;
84984;SDS011;75299;50.018;20.014;2024-03-25T23:21:19;20.30;;;12.48;;
84984;SDS011;75299;50.018;20.014;2024-03-25T23:24:38;19.10;;;11.93;;
84984;SDS011;75299;50.018;20.014;2024-03-25T23:27:56;20.50;;;12.60;;
84984;SDS011;75299;50.018;20.014;2024-03-25T23:31:14;19.10;;;12.73;;
84984;SDS011;75299;50.018;20.014;2024-03-25T23:34:32;21.68;;;13.48;;